Terminal Aerodrome Forecast
Issued by NWS

Home | Current Version | Previous Version | Text Only | Print | Product List | Glossary On
Versions: 1 2 3 4 5 6 7 8 9 10 11 12 13 14 15 16
863
FTUS44 KLZK 261720
TAFBPK
TAF
KBPK 261720Z 2618/2718 VRB05KT P6SM BKN050 BKN250
     FM262100 VRB03KT P6SM OVC100
     FM270800 32003KT P6SM OVC050
     FM271000 33004KT 6SM BR OVC015
      TEMPO 2710/2712 4SM BR BKN005
     FM271500 02007KT P6SM SCT015 OVC040=

USA.gov is the U.S. government's official web portal to all federal, state and local government web resources and services.